Time;durP1;ratioP1;P1;durP2;ratioP2;P2;SDS_P1;SDS_P2;PMS_P1;PMS_P2;Temp;Humidity;BMP_temperature;BMP_pressure;BME280_temperature;BME280_humidity;BME280_pressure;Samples;Min_cycle;Max_cycle;Signal;HPM_P1;HPM_P2
2024/02/26 00:01:56;;;;;;;3.63;2.67;;;3.40;99.90;;;;;;5080211;28;20205;-64
2024/02/26 00:04:23;;;;;;;2.80;2.60;;;3.40;99.90;;;;;;5082271;28;20212;-61
2024/02/26 00:06:51;;;;;;;4.28;3.20;;;3.40;99.90;;;;;;5086531;28;20875;-60
2024/02/26 00:09:18;;;;;;;4.60;4.13;;;3.40;99.90;;;;;;5088492;28;20295;-61
2024/02/26 00:11:44;;;;;;;4.35;3.95;;;3.40;99.90;;;;;;5088615;28;20248;-60
2024/02/26 00:14:13;;;;;;;3.90;3.60;;;3.40;99.90;;;;;;5087814;28;20205;-61
2024/02/26 00:16:41;;;;;;;3.92;3.58;;;3.40;99.90;;;;;;5088566;28;20296;-62
2024/02/26 00:19:08;;;;;;;3.40;3.10;;;3.40;99.90;;;;;;5082265;28;20761;-61
2024/02/26 00:21:35;;;;;;;5.05;4.65;;;3.40;99.90;;;;;;5087768;28;20232;-61
2024/02/26 00:24:02;;;;;;;4.18;3.85;;;3.40;99.90;;;;;;5073802;28;20216;-60
2024/02/26 00:26:29;;;;;;;4.93;4.38;;;3.40;99.90;;;;;;5088048;28;20647;-62
2024/02/26 00:28:56;;;;;;;4.50;4.10;;;3.40;99.90;;;;;;5048337;22;20817;-64
2024/02/26 00:31:24;;;;;;;4.38;3.72;;;3.40;99.90;;;;;;4995976;28;20242;-64
2024/02/26 00:33:50;;;;;;;5.35;4.47;;;3.40;99.90;;;;;;5007257;28;20233;-64
2024/02/26 00:36:18;;;;;;;3.80;3.42;;;3.40;99.90;;;;;;5006059;28;20223;-63
2024/02/26 00:38:50;;;;;;;3.72;3.42;;;3.40;99.90;;;;;;4998436;28;20256;-62
2024/02/26 00:41:17;;;;;;;4.95;4.55;;;3.40;99.90;;;;;;4988781;28;20831;-63
2024/02/26 00:43:44;;;;;;;4.13;3.80;;;3.40;99.90;;;;;;4988439;28;20209;-63
2024/02/26 00:46:10;;;;;;;7.95;6.57;;;3.40;99.90;;;;;;4989332;28;20219;-64
2024/02/26 00:48:38;;;;;;;4.18;3.65;;;3.40;99.90;;;;;;4989369;28;20854;-64
2024/02/26 00:51:07;;;;;;;5.47;4.72;;;3.40;99.90;;;;;;4988913;28;20232;-64
2024/02/26 00:53:34;;;;;;;5.38;4.88;;;3.30;99.90;;;;;;4995296;28;20216;-64
2024/02/26 00:56:01;;;;;;;4.40;3.28;;;3.30;99.90;;;;;;5000386;28;20204;-64
2024/02/26 00:58:28;;;;;;;4.30;3.90;;;3.30;99.90;;;;;;5008489;28;20240;-64
2024/02/26 01:00:54;;;;;;;5.90;4.50;;;3.30;99.90;;;;;;5008591;28;20215;-64
2024/02/26 01:03:21;;;;;;;4.80;3.83;;;3.30;99.90;;;;;;5008360;28;20317;-64
2024/02/26 01:05:49;;;;;;;3.92;3.58;;;3.30;99.90;;;;;;5008742;28;20266;-63
2024/02/26 01:08:16;;;;;;;7.97;5.20;;;3.20;99.90;;;;;;5008345;28;20726;-64
2024/02/26 01:10:43;;;;;;;5.18;4.05;;;3.20;99.90;;;;;;5008371;28;20207;-64
2024/02/26 01:13:10;;;;;;;4.57;4.10;;;3.20;99.90;;;;;;5008102;28;20298;-64
2024/02/26 01:15:37;;;;;;;3.83;3.42;;;3.20;99.90;;;;;;5008912;28;20871;-63
2024/02/26 01:18:04;;;;;;;3.55;3.25;;;3.10;99.90;;;;;;5008572;28;20238;-64
2024/02/26 01:20:31;;;;;;;4.28;3.88;;;3.10;99.90;;;;;;5008659;28;20208;-64
2024/02/26 01:22:59;;;;;;;5.32;4.57;;;3.10;99.90;;;;;;5005051;28;20218;-64
2024/02/26 01:25:25;;;;;;;5.78;3.80;;;3.10;99.90;;;;;;5000136;28;20203;-64
2024/02/26 01:27:52;;;;;;;5.40;4.13;;;3.10;99.90;;;;;;5008283;28;20243;-64
2024/02/26 01:30:20;;;;;;;5.43;3.78;;;3.10;99.90;;;;;;5008121;28;20218;-64
2024/02/26 01:32:47;;;;;;;3.97;3.65;;;3.20;99.90;;;;;;5006971;28;20267;-63
2024/02/26 01:35:13;;;;;;;4.60;4.20;;;3.20;99.90;;;;;;5009421;28;20590;-63
2024/02/26 01:37:41;;;;;;;5.13;4.80;;;3.20;99.90;;;;;;5011649;28;20337;-64
2024/02/26 01:40:11;;;;;;;4.30;4.00;;;3.20;99.90;;;;;;5011796;28;20220;-63
2024/02/26 01:42:40;;;;;;;4.47;3.78;;;3.20;99.90;;;;;;5011446;28;20684;-64
2024/02/26 01:45:15;;;;;;;4.25;3.95;;;3.30;99.90;;;;;;5011840;28;20243;-63
2024/02/26 01:47:43;;;;;;;3.63;3.28;;;3.30;99.90;;;;;;5011704;28;20266;-64
2024/02/26 01:50:10;;;;;;;4.57;4.18;;;3.30;99.90;;;;;;5011770;28;20211;-64
2024/02/26 01:52:37;;;;;;;3.65;3.30;;;3.40;99.90;;;;;;5011493;28;20242;-64
2024/02/26 01:55:04;;;;;;;7.15;4.07;;;3.40;99.90;;;;;;5011722;28;20208;-63
2024/02/26 01:57:32;;;;;;;5.13;3.92;;;3.40;99.90;;;;;;5011577;28;20234;-63
2024/02/26 01:59:59;;;;;;;4.25;3.85;;;3.40;99.90;;;;;;5011307;28;20215;-63
2024/02/26 02:02:27;;;;;;;3.75;3.42;;;3.40;99.90;;;;;;5011173;28;20238;-64
2024/02/26 02:04:54;;;;;;;3.55;3.28;;;3.50;99.90;;;;;;5011562;28;20714;-63
2024/02/26 02:07:23;;;;;;;4.50;4.03;;;3.50;99.90;;;;;;5011360;28;20228;-63
2024/02/26 02:09:51;;;;;;;3.75;3.30;;;3.50;99.90;;;;;;5011237;28;20208;-64
2024/02/26 02:12:18;;;;;;;5.43;4.00;;;3.60;99.90;;;;;;5010718;28;20235;-64
2024/02/26 02:14:46;;;;;;;3.67;3.33;;;3.60;99.90;;;;;;5011436;28;20212;-64
2024/02/26 02:17:13;;;;;;;3.60;3.25;;;3.60;99.90;;;;;;5011191;28;20354;-63
2024/02/26 02:19:40;;;;;;;4.32;3.33;;;3.60;99.90;;;;;;5011301;28;20245;-64
2024/02/26 02:22:08;;;;;;;3.25;2.95;;;3.60;99.90;;;;;;5010866;28;20220;-63
2024/02/26 02:24:35;;;;;;;5.13;3.35;;;3.70;99.90;;;;;;5008716;28;20216;-64
2024/02/26 02:27:02;;;;;;;6.03;5.63;;;3.70;99.90;;;;;;5002643;28;20701;-63
2024/02/26 02:29:29;;;;;;;4.43;3.42;;;3.70;99.90;;;;;;5011116;28;20212;-64
2024/02/26 02:31:56;;;;;;;3.70;3.40;;;3.70;99.90;;;;;;5011089;28;20236;-64
2024/02/26 02:34:23;;;;;;;2.95;2.75;;;3.80;99.90;;;;;;5010953;28;20226;-64
2024/02/26 02:36:53;;;;;;;4.45;3.63;;;3.80;99.90;;;;;;5010899;28;20218;-64
2024/02/26 02:39:22;;;;;;;2.75;2.55;;;3.80;99.90;;;;;;5010617;28;20215;-64
2024/02/26 02:41:48;;;;;;;3.58;3.28;;;3.80;99.90;;;;;;5010748;28;20734;-64
2024/02/26 02:44:14;;;;;;;3.90;3.60;;;3.90;99.90;;;;;;5010448;28;20298;-64
2024/02/26 02:46:41;;;;;;;2.95;2.75;;;3.90;99.90;;;;;;5010586;28;20458;-63
2024/02/26 02:49:10;;;;;;;3.20;2.88;;;3.90;99.90;;;;;;5010276;28;20239;-64
2024/02/26 02:51:37;;;;;;;3.13;2.83;;;3.90;99.90;;;;;;5010214;28;20239;-64
2024/02/26 02:54:04;;;;;;;3.00;2.80;;;3.90;99.90;;;;;;5010005;28;20266;-64
2024/02/26 02:56:32;;;;;;;4.43;3.58;;;4.00;99.90;;;;;;5010608;28;20214;-64
2024/02/26 02:58:59;;;;;;;3.88;3.58;;;4.00;99.90;;;;;;5010465;28;20607;-64
2024/02/26 03:01:26;;;;;;;4.78;4.10;;;4.00;99.90;;;;;;5010486;28;20216;-64
2024/02/26 03:03:53;;;;;;;3.97;3.58;;;4.00;99.90;;;;;;5009842;28;20218;-64
2024/02/26 03:06:20;;;;;;;3.95;3.65;;;4.00;99.90;;;;;;5010175;28;20218;-64
2024/02/26 03:08:47;;;;;;;3.25;2.95;;;4.10;99.90;;;;;;5010123;28;20240;-64
2024/02/26 03:11:15;;;;;;;3.47;3.17;;;4.10;99.90;;;;;;5010223;28;20211;-64
2024/02/26 03:13:44;;;;;;;3.17;2.70;;;4.10;99.90;;;;;;5009737;28;20212;-64
2024/02/26 03:16:11;;;;;;;3.17;2.88;;;4.10;99.90;;;;;;5010123;28;20282;-64
2024/02/26 03:18:39;;;;;;;3.97;3.58;;;4.20;99.90;;;;;;5009892;28;20678;-64
2024/02/26 03:21:06;;;;;;;4.93;3.53;;;4.10;99.90;;;;;;5009431;28;20226;-64
2024/02/26 03:23:36;;;;;;;3.80;3.50;;;4.20;99.90;;;;;;5009638;28;20212;-64
2024/02/26 03:26:03;;;;;;;3.53;3.10;;;4.20;99.90;;;;;;5009720;28;20212;-64
2024/02/26 03:28:30;;;;;;;5.47;5.18;;;4.20;99.90;;;;;;5009897;28;20780;-64
2024/02/26 03:30:58;;;;;;;4.28;3.88;;;4.20;99.90;;;;;;5009936;28;20594;-64
2024/02/26 03:33:25;;;;;;;4.75;3.33;;;4.30;99.90;;;;;;5009226;28;20817;-64
2024/02/26 03:35:52;;;;;;;5.32;3.65;;;4.30;99.90;;;;;;5009914;28;20298;-64
2024/02/26 03:38:19;;;;;;;5.68;3.55;;;4.40;99.90;;;;;;5009803;28;20258;-64
2024/02/26 03:40:46;;;;;;;5.13;3.17;;;4.40;99.90;;;;;;5009561;28;20330;-64
2024/02/26 03:43:13;;;;;;;5.22;4.00;;;4.50;99.90;;;;;;5009089;28;20203;-64
2024/02/26 03:45:39;;;;;;;10.05;3.92;;;4.50;99.90;;;;;;5009494;28;20218;-64
2024/02/26 03:48:08;;;;;;;3.80;3.40;;;4.50;99.90;;;;;;5009141;28;20239;-64
2024/02/26 03:50:35;;;;;;;5.88;3.33;;;4.60;99.90;;;;;;5009135;28;20218;-64
2024/02/26 03:53:02;;;;;;;2.85;2.65;;;4.60;99.90;;;;;;5008915;28;20245;-64
2024/02/26 03:55:29;;;;;;;5.05;3.55;;;4.60;99.90;;;;;;5009304;28;20218;-64
2024/02/26 03:57:55;;;;;;;4.10;3.67;;;4.60;99.90;;;;;;5008886;28;20238;-64
2024/02/26 04:00:23;;;;;;;4.15;3.75;;;4.60;99.90;;;;;;5009219;28;20298;-64
2024/02/26 04:02:50;;;;;;;4.20;3.80;;;4.60;99.90;;;;;;5008914;28;20737;-64
2024/02/26 04:05:18;;;;;;;4.13;3.75;;;4.60;99.90;;;;;;5009306;28;20215;-64
2024/02/26 04:07:45;;;;;;;4.90;4.03;;;4.60;99.90;;;;;;5009252;28;20282;-64
2024/02/26 04:10:12;;;;;;;5.45;4.20;;;4.60;99.90;;;;;;5008965;28;20216;-64
2024/02/26 04:12:41;;;;;;;5.05;4.38;;;4.70;99.90;;;;;;5008347;28;20227;-64
2024/02/26 04:15:09;;;;;;;3.85;3.55;;;4.70;99.90;;;;;;5009000;28;20212;-64
2024/02/26 04:17:35;;;;;;;4.07;3.78;;;4.70;99.90;;;;;;5008780;28;20243;-64
2024/02/26 04:20:02;;;;;;;5.65;4.20;;;4.70;99.90;;;;;;5008989;28;20212;-64
2024/02/26 04:22:32;;;;;;;4.47;3.67;;;4.70;99.90;;;;;;5008535;28;20214;-64
2024/02/26 04:24:58;;;;;;;3.08;2.80;;;4.70;99.90;;;;;;5006348;28;20239;-64
2024/02/26 04:27:25;;;;;;;3.20;2.90;;;4.70;99.90;;;;;;5008380;28;20236;-64
2024/02/26 04:29:52;;;;;;;4.35;2.75;;;4.70;99.90;;;;;;5008966;28;20348;-64
2024/02/26 04:32:19;;;;;;;3.40;3.10;;;4.70;99.90;;;;;;5008510;28;20238;-64
2024/02/26 04:34:46;;;;;;;9.23;5.13;;;4.70;99.90;;;;;;5009236;28;20592;-64
2024/02/26 04:37:12;;;;;;;4.13;3.53;;;4.70;99.90;;;;;;5009172;28;20208;-64
2024/02/26 04:39:40;;;;;;;4.10;3.45;;;4.70;99.90;;;;;;5008778;28;20229;-64
2024/02/26 04:42:07;;;;;;;3.47;3.17;;;4.70;99.90;;;;;;5008182;28;20211;-64
2024/02/26 04:44:34;;;;;;;3.13;2.22;;;4.70;99.90;;;;;;5008948;28;20211;-64
2024/02/26 04:47:01;;;;;;;3.13;2.70;;;4.70;99.90;;;;;;5008594;28;20218;-64
2024/02/26 04:49:28;;;;;;;4.65;3.33;;;4.70;99.90;;;;;;5008563;28;20211;-64
2024/02/26 04:51:55;;;;;;;4.43;3.35;;;4.70;99.90;;;;;;5008645;28;20699;-64
2024/02/26 04:54:22;;;;;;;3.58;3.25;;;4.70;99.90;;;;;;5008330;28;20641;-64
2024/02/26 04:56:50;;;;;;;3.50;3.00;;;4.70;99.90;;;;;;5008556;28;20215;-64
2024/02/26 04:59:17;;;;;;;5.25;2.90;;;4.70;99.90;;;;;;5008492;28;20620;-64
2024/02/26 05:01:44;;;;;;;3.60;3.30;;;4.70;99.90;;;;;;5008538;28;20208;-64
2024/02/26 05:04:11;;;;;;;8.05;4.30;;;4.70;99.90;;;;;;5008419;28;20203;-64
2024/02/26 05:06:38;;;;;;;4.25;3.50;;;4.70;99.90;;;;;;5008816;28;20334;-63
2024/02/26 05:09:05;;;;;;;3.78;3.58;;;4.70;99.90;;;;;;5008517;28;20243;-64
2024/02/26 05:11:32;;;;;;;3.67;3.33;;;4.70;99.90;;;;;;5012278;28;20330;-64
2024/02/26 05:14:00;;;;;;;4.20;3.90;;;4.70;99.90;;;;;;5012000;28;20228;-64
2024/02/26 05:16:30;;;;;;;7.13;3.65;;;4.70;99.90;;;;;;5012320;28;20643;-64
2024/02/26 05:18:56;;;;;;;4.10;3.75;;;4.70;99.90;;;;;;5012023;28;21072;-63
2024/02/26 05:21:23;;;;;;;3.75;3.45;;;4.70;99.90;;;;;;5012172;28;20690;-64
2024/02/26 05:23:50;;;;;;;6.60;3.58;;;4.70;99.90;;;;;;5011590;28;20208;-63
2024/02/26 05:26:21;;;;;;;8.48;3.65;;;4.70;99.90;;;;;;5012039;28;20216;-64
2024/02/26 05:28:48;;;;;;;4.55;3.72;;;4.60;99.90;;;;;;5011789;28;20251;-64
2024/02/26 05:31:16;;;;;;;3.25;3.05;;;4.60;99.90;;;;;;4998114;28;20595;-64
2024/02/26 05:33:43;;;;;;;4.13;3.80;;;4.60;99.90;;;;;;4991649;28;20231;-64
2024/02/26 05:36:10;;;;;;;5.13;3.35;;;4.60;99.90;;;;;;5000313;28;20212;-63
2024/02/26 05:38:37;;;;;;;5.20;3.10;;;4.60;99.90;;;;;;4992488;28;20600;-63
2024/02/26 05:41:05;;;;;;;3.20;2.90;;;4.60;99.90;;;;;;4992541;28;20223;-64
2024/02/26 05:43:32;;;;;;;5.65;3.92;;;4.60;99.90;;;;;;4992068;28;20212;-64
2024/02/26 05:45:58;;;;;;;4.70;3.20;;;4.60;99.90;;;;;;4992203;28;20211;-64
2024/02/26 05:48:26;;;;;;;4.90;3.05;;;4.50;99.90;;;;;;4991972;28;20232;-64
2024/02/26 05:50:53;;;;;;;6.10;3.85;;;4.50;99.90;;;;;;4991755;28;20218;-63
2024/02/26 05:53:20;;;;;;;6.80;4.55;;;4.50;99.90;;;;;;4991425;28;20234;-64
2024/02/26 05:55:47;;;;;;;7.55;3.22;;;4.40;99.90;;;;;;4992107;28;20681;-64
2024/02/26 05:58:14;;;;;;;4.93;4.32;;;4.40;99.90;;;;;;4991571;28;20232;-64
2024/02/26 06:00:41;;;;;;;4.40;3.95;;;4.40;99.90;;;;;;4991560;28;20212;-64
2024/02/26 06:03:08;;;;;;;4.90;4.25;;;4.40;99.90;;;;;;4991290;28;20209;-64
2024/02/26 06:05:36;;;;;;;4.97;4.25;;;4.40;99.90;;;;;;4991726;28;20212;-64
2024/02/26 06:08:03;;;;;;;6.30;4.35;;;4.40;99.90;;;;;;4991695;28;20335;-64
2024/02/26 06:10:30;;;;;;;8.98;4.85;;;4.40;99.90;;;;;;4991607;28;20299;-64
2024/02/26 06:12:57;;;;;;;5.70;4.65;;;4.40;99.90;;;;;;4991155;28;20802;-63
2024/02/26 06:15:24;;;;;;;6.13;4.70;;;4.40;99.90;;;;;;4985871;28;20205;-64
2024/02/26 06:17:50;;;;;;;6.50;4.70;;;4.40;99.90;;;;;;4981713;28;20240;-64
2024/02/26 06:20:17;;;;;;;8.20;6.00;;;4.40;99.90;;;;;;4977059;28;20223;-64
2024/02/26 06:22:45;;;;;;;4.97;4.47;;;4.50;99.90;;;;;;4971221;28;20213;-64
2024/02/26 06:25:12;;;;;;;7.80;4.80;;;4.50;99.90;;;;;;4971976;28;20217;-64
2024/02/26 06:27:39;;;;;;;5.72;5.20;;;4.50;99.90;;;;;;4971838;28;20640;-64
2024/02/26 06:30:08;;;;;;;9.27;5.97;;;4.50;99.90;;;;;;4971746;28;20212;-64
2024/02/26 06:32:35;;;;;;;5.57;4.97;;;4.50;99.90;;;;;;4971200;28;20242;-64
2024/02/26 06:35:06;;;;;;;5.50;4.30;;;4.50;99.90;;;;;;4971862;28;20217;-64
2024/02/26 06:37:33;;;;;;;8.68;5.35;;;4.50;99.90;;;;;;4971843;28;20237;-64
2024/02/26 06:40:03;;;;;;;5.57;4.85;;;4.60;99.90;;;;;;4971429;28;20213;-63
2024/02/26 06:42:30;;;;;;;5.95;5.05;;;4.60;99.90;;;;;;4971225;28;20235;-64
2024/02/26 06:44:57;;;;;;;4.68;4.28;;;4.60;99.90;;;;;;4971550;28;20213;-63
2024/02/26 06:47:24;;;;;;;5.32;3.75;;;4.60;99.90;;;;;;4971945;28;20243;-64
2024/02/26 06:49:50;;;;;;;7.97;6.10;;;4.70;99.90;;;;;;4971641;28;20231;-64
2024/02/26 06:52:17;;;;;;;4.68;4.28;;;4.70;99.90;;;;;;4971121;28;20219;-64
2024/02/26 06:54:44;;;;;;;5.18;4.65;;;4.70;99.90;;;;;;4971484;28;20816;-64
2024/02/26 06:57:12;;;;;;;10.02;5.30;;;4.80;99.90;;;;;;4971301;28;20747;-64
2024/02/26 06:59:40;;;;;;;5.82;5.03;;;4.80;99.90;;;;;;4971292;28;20647;-64
2024/02/26 07:02:07;;;;;;;5.03;4.63;;;4.80;99.90;;;;;;4970691;28;20688;-64
2024/02/26 07:04:33;;;;;;;8.15;6.60;;;4.90;99.90;;;;;;4971314;28;20209;-64
2024/02/26 07:07:00;;;;;;;6.15;5.47;;;5.00;99.90;;;;;;4971082;28;20213;-64
2024/02/26 07:09:27;;;;;;;8.98;6.43;;;5.00;99.90;;;;;;4971058;28;20304;-64
2024/02/26 07:11:54;;;;;;;7.95;7.15;;;5.10;99.90;;;;;;4971071;28;20216;-64
2024/02/26 07:14:22;;;;;;;16.13;8.80;;;5.10;99.90;;;;;;4970655;28;20229;-64
2024/02/26 07:16:49;;;;;;;9.98;5.78;;;5.10;99.90;;;;;;4971345;28;20668;-64
2024/02/26 07:19:16;;;;;;;7.13;5.50;;;5.20;99.90;;;;;;4971163;28;20229;-64
2024/02/26 07:21:42;;;;;;;6.97;6.38;;;5.20;99.90;;;;;;4971195;28;20221;-64
2024/02/26 07:24:09;;;;;;;8.07;6.50;;;5.30;99.90;;;;;;4970403;28;20220;-64
2024/02/26 07:26:36;;;;;;;7.15;6.32;;;5.30;99.90;;;;;;4970772;28;20216;-64
2024/02/26 07:29:04;;;;;;;8.32;7.15;;;5.40;99.90;;;;;;4970735;28;20245;-64
2024/02/26 07:31:32;;;;;;;9.90;6.80;;;5.40;99.90;;;;;;4970893;28;20212;-64
2024/02/26 07:33:59;;;;;;;11.43;7.32;;;5.40;99.90;;;;;;4969481;28;20787;-64
2024/02/26 07:36:26;;;;;;;12.48;8.45;;;5.50;99.90;;;;;;4970671;28;20316;-64
2024/02/26 07:38:54;;;;;;;9.55;8.07;;;5.50;99.90;;;;;;4970347;28;20819;-64
2024/02/26 07:41:21;;;;;;;8.90;7.13;;;5.60;99.90;;;;;;4970779;28;20255;-64
2024/02/26 07:43:48;;;;;;;12.43;8.10;;;5.60;99.90;;;;;;4970118;28;20223;-64
2024/02/26 07:46:15;;;;;;;10.43;6.22;;;5.70;99.90;;;;;;4979314;28;20208;-64
2024/02/26 07:48:43;;;;;;;10.85;7.28;;;5.70;99.90;;;;;;4978948;28;20311;-64
2024/02/26 07:51:13;;;;;;;10.75;8.85;;;5.80;99.90;;;;;;4979887;28;20236;-64
2024/02/26 07:53:40;;;;;;;10.00;8.63;;;5.90;99.90;;;;;;4978197;28;20221;-64
2024/02/26 07:56:07;;;;;;;10.38;7.82;;;6.00;99.90;;;;;;4981466;28;20212;-64
2024/02/26 07:58:34;;;;;;;9.80;8.32;;;6.00;99.90;;;;;;4989545;28;20238;-64
2024/02/26 08:01:01;;;;;;;12.57;8.05;;;6.10;99.90;;;;;;4989356;28;20213;-64
2024/02/26 08:03:28;;;;;;;37.33;13.55;;;6.20;99.90;;;;;;4989104;28;20304;-64
2024/02/26 08:05:56;;;;;;;17.52;10.10;;;6.30;99.90;;;;;;4989552;28;20631;-64
2024/02/26 08:08:23;;;;;;;14.32;11.48;;;6.40;99.90;;;;;;4989190;28;20810;-64
2024/02/26 08:10:50;;;;;;;14.82;10.60;;;6.40;99.90;;;;;;4989414;28;20691;-64
2024/02/26 08:13:16;;;;;;;12.40;10.65;;;6.50;99.90;;;;;;4988900;28;20228;-64
2024/02/26 08:15:43;;;;;;;15.65;9.23;;;6.50;99.90;;;;;;4989529;28;20214;-64
2024/02/26 08:18:10;;;;;;;12.45;9.60;;;6.50;99.90;;;;;;4989324;28;20236;-64
2024/02/26 08:20:37;;;;;;;14.77;9.75;;;6.60;99.90;;;;;;4989284;28;20212;-64
2024/02/26 08:23:05;;;;;;;17.48;10.23;;;6.60;99.90;;;;;;4988752;28;20208;-64
2024/02/26 08:25:32;;;;;;;12.55;9.35;;;6.70;99.90;;;;;;4989318;28;20218;-64
2024/02/26 08:27:59;;;;;;;11.30;9.15;;;6.70;99.90;;;;;;4989259;28;20235;-64
2024/02/26 08:30:26;;;;;;;12.57;9.73;;;6.80;99.90;;;;;;4989151;28;20593;-64
2024/02/26 08:32:53;;;;;;;13.35;8.93;;;6.80;99.90;;;;;;4988618;28;20284;-64
2024/02/26 08:35:20;;;;;;;11.05;9.95;;;6.80;99.90;;;;;;4988935;28;20282;-64
2024/02/26 08:37:47;;;;;;;14.30;11.30;;;6.90;99.90;;;;;;4989085;28;20890;-64
2024/02/26 08:40:16;;;;;;;14.32;10.65;;;6.90;99.90;;;;;;4988521;28;20216;-64
2024/02/26 08:42:43;;;;;;;14.10;10.60;;;6.90;99.90;;;;;;4979590;28;20208;-64
2024/02/26 08:45:11;;;;;;;10.88;8.85;;;7.00;99.90;;;;;;4980105;28;20650;-64
2024/02/26 08:47:37;;;;;;;10.23;8.75;;;7.10;99.90;;;;;;4982946;28;20720;-64
2024/02/26 08:50:06;;;;;;;11.45;10.00;;;7.10;99.90;;;;;;4990150;28;20208;-64
2024/02/26 08:52:34;;;;;;;16.42;9.73;;;7.20;99.90;;;;;;4991810;28;20266;-64
2024/02/26 08:55:00;;;;;;;16.20;10.57;;;7.20;99.90;;;;;;4992228;28;20236;-64
2024/02/26 08:57:29;;;;;;;8.55;7.57;;;7.20;99.90;;;;;;4992892;28;20323;-64
2024/02/26 08:59:55;;;;;;;14.20;9.05;;;7.20;99.90;;;;;;4992604;28;20218;-64
2024/02/26 09:02:22;;;;;;;9.05;8.13;;;7.20;99.90;;;;;;4992324;28;20248;-64
2024/02/26 09:04:50;;;;;;;7.70;7.00;;;7.20;99.90;;;;;;4993010;28;20208;-64
2024/02/26 09:07:17;;;;;;;8.80;7.95;;;7.20;99.90;;;;;;4992765;28;20236;-64
2024/02/26 09:09:44;;;;;;;9.10;7.80;;;7.20;99.90;;;;;;4992507;28;20222;-64
2024/02/26 09:12:11;;;;;;;8.82;7.95;;;7.20;99.90;;;;;;4992198;28;20222;-64
2024/02/26 09:14:39;;;;;;;7.50;6.75;;;7.30;99.90;;;;;;4993291;28;20232;-64
2024/02/26 09:17:07;;;;;;;10.33;6.00;;;7.30;99.90;;;;;;5011998;28;20218;-64
2024/02/26 09:19:34;;;;;;;8.70;7.22;;;7.30;99.90;;;;;;5012024;28;20465;-64
2024/02/26 09:22:01;;;;;;;9.05;7.65;;;7.40;99.90;;;;;;5011449;28;20219;-64
2024/02/26 09:24:28;;;;;;;8.43;7.50;;;7.40;99.90;;;;;;5012142;28;20595;-64
2024/02/26 09:26:55;;;;;;;7.78;7.00;;;7.40;99.90;;;;;;5011670;28;20222;-64
2024/02/26 09:29:21;;;;;;;22.48;9.95;;;7.40;99.90;;;;;;5011782;28;20599;-64
2024/02/26 09:31:50;;;;;;;12.35;6.78;;;7.50;99.90;;;;;;5011899;28;20265;-64
2024/02/26 09:34:16;;;;;;;7.82;7.03;;;7.50;99.90;;;;;;5011498;28;20238;-64
2024/02/26 09:36:44;;;;;;;9.20;7.35;;;7.50;99.90;;;;;;5011785;28;20215;-64
2024/02/26 09:39:14;;;;;;;7.85;6.30;;;7.60;99.90;;;;;;5011588;28;20266;-64
2024/02/26 09:41:41;;;;;;;7.57;6.65;;;7.60;99.90;;;;;;5011740;28;20208;-64
2024/02/26 09:44:09;;;;;;;8.77;7.88;;;7.60;99.90;;;;;;5011113;28;20214;-64
2024/02/26 09:46:36;;;;;;;10.73;9.18;;;7.60;99.90;;;;;;5011876;28;20239;-64
2024/02/26 09:49:05;;;;;;;11.07;8.15;;;7.70;99.90;;;;;;5011362;28;20238;-64
2024/02/26 09:51:32;;;;;;;9.05;6.93;;;7.70;99.90;;;;;;5011639;28;20211;-64
2024/02/26 09:54:01;;;;;;;6.90;6.30;;;7.80;99.90;;;;;;5010968;28;20227;-64
2024/02/26 09:56:29;;;;;;;7.78;6.80;;;7.90;99.90;;;;;;5004558;28;20208;-64
2024/02/26 09:58:58;;;;;;;9.65;6.47;;;8.00;99.90;;;;;;5007498;28;20736;-64
2024/02/26 10:01:25;;;;;;;7.97;7.20;;;8.00;99.90;;;;;;5011128;28;20310;-64
2024/02/26 10:03:56;;;;;;;7.85;7.13;;;8.10;99.90;;;;;;5010571;28;20338;-64
2024/02/26 10:06:25;;;;;;;8.20;7.18;;;8.20;99.90;;;;;;5011004;28;20212;-64
2024/02/26 10:08:54;;;;;;;7.10;6.40;;;8.30;99.90;;;;;;5010034;28;20322;-64
2024/02/26 10:11:21;;;;;;;6.63;6.10;;;8.40;99.90;;;;;;5010788;28;20680;-64
2024/02/26 10:13:48;;;;;;;7.07;6.37;;;8.50;99.90;;;;;;5010464;28;20906;-64
2024/02/26 10:16:16;;;;;;;6.82;5.82;;;8.50;99.90;;;;;;5010683;28;20450;-64
2024/02/26 10:18:47;;;;;;;8.05;6.57;;;8.60;99.90;;;;;;4996252;28;20789;-64
2024/02/26 10:21:17;;;;;;;7.00;5.60;;;8.70;99.90;;;;;;4988865;28;20300;-64
2024/02/26 10:23:47;;;;;;;6.30;5.77;;;8.80;99.90;;;;;;4990102;28;20458;-64
2024/02/26 10:26:15;;;;;;;7.50;6.70;;;8.90;99.90;;;;;;5010398;28;20461;-64
2024/02/26 10:28:43;;;;;;;6.70;6.00;;;8.90;99.90;;;;;;5010092;28;20243;-64
2024/02/26 10:31:11;;;;;;;8.00;7.20;;;9.10;99.90;;;;;;5010213;28;20465;-64
2024/02/26 10:33:38;;;;;;;5.57;5.17;;;9.30;99.90;;;;;;4996553;28;20546;-64
2024/02/26 10:36:06;;;;;;;6.80;6.10;;;9.40;99.90;;;;;;4983124;28;20547;-64
2024/02/26 10:38:33;;;;;;;6.70;6.03;;;9.60;99.90;;;;;;4997068;28;20482;-64
2024/02/26 10:41:03;;;;;;;6.60;6.00;;;9.80;99.90;;;;;;4995604;28;20468;-64
2024/02/26 10:43:30;;;;;;;6.30;5.70;;;10.00;99.90;;;;;;5005745;28;20548;-64
2024/02/26 10:45:57;;;;;;;5.77;5.27;;;10.10;99.90;;;;;;4999441;28;20454;-64
2024/02/26 10:48:24;;;;;;;6.20;5.60;;;10.20;99.90;;;;;;5000394;28;20467;-64
2024/02/26 10:50:52;;;;;;;6.70;5.10;;;10.20;99.90;;;;;;4994314;28;20469;-64
2024/02/26 10:53:21;;;;;;;5.33;4.93;;;10.30;99.90;;;;;;4997862;28;20459;-64
2024/02/26 10:55:53;;;;;;;6.50;4.80;;;10.40;99.90;;;;;;4994497;28;20568;-64
2024/02/26 10:58:22;;;;;;;5.60;5.10;;;10.40;99.90;;;;;;4991135;28;20624;-64
2024/02/26 11:00:51;;;;;;;5.23;4.80;;;10.50;99.90;;;;;;4984060;28;20468;-64
2024/02/26 11:03:19;;;;;;;6.57;5.73;;;10.60;99.90;;;;;;4996309;28;20460;-64
2024/02/26 11:05:48;;;;;;;6.50;5.53;;;10.70;99.90;;;;;;4985399;28;20484;-64
2024/02/26 11:08:16;;;;;;;6.00;5.40;;;10.90;99.90;;;;;;4998169;28;20466;-64
2024/02/26 11:10:43;;;;;;;6.70;5.83;;;10.90;99.90;;;;;;4992177;28;20543;-64
2024/02/26 11:13:15;;;;;;;5.20;4.70;;;11.00;99.90;;;;;;4993383;28;20459;-64
2024/02/26 11:15:45;;;;;;;6.00;5.40;;;11.00;99.90;;;;;;4994489;28;20487;-64
2024/02/26 11:18:14;;;;;;;6.10;5.50;;;10.90;99.90;;;;;;4987130;28;20467;-64
2024/02/26 11:20:42;;;;;;;5.70;5.20;;;10.90;99.90;;;;;;4977347;28;20492;-64
2024/02/26 11:23:09;;;;;;;5.17;3.83;;;10.90;99.90;;;;;;5001288;28;20455;-64
2024/02/26 11:25:37;;;;;;;6.50;5.27;;;10.80;99.90;;;;;;4976920;28;20540;-64
2024/02/26 11:28:07;;;;;;;5.17;4.27;;;10.80;99.90;;;;;;5000970;28;20489;-64
2024/02/26 11:30:38;;;;;;;5.20;4.80;;;10.80;99.90;;;;;;4992301;28;20840;-64
2024/02/26 11:33:08;;;;;;;5.50;4.97;;;10.80;99.90;;;;;;4988611;28;20458;-64
2024/02/26 11:35:37;;;;;;;6.67;4.67;;;10.80;99.90;;;;;;4996219;28;21198;-64
2024/02/26 11:38:06;;;;;;;5.03;4.53;;;10.90;99.90;;;;;;4990490;28;20475;-64
2024/02/26 11:40:34;;;;;;;7.47;5.10;;;10.90;99.90;;;;;;4997365;28;20500;-64
2024/02/26 11:43:01;;;;;;;6.47;5.83;;;11.00;99.90;;;;;;4986035;28;20460;-64
2024/02/26 11:45:51;;;;;;;5.13;4.40;;;11.10;99.90;;;;;;4977349;28;20834;-65
2024/02/26 11:48:24;;;;;;;5.90;5.20;;;11.30;99.90;;;;;;4998405;28;20481;-64
2024/02/26 11:50:52;;;;;;;5.70;4.60;;;11.30;99.90;;;;;;4996120;28;20801;-63
2024/02/26 11:53:24;;;;;;;4.90;3.90;;;11.40;99.90;;;;;;4992526;28;20455;-64
2024/02/26 11:56:21;;;;;;;5.17;4.67;;;11.40;99.90;;;;;;4999523;28;20494;-64
2024/02/26 11:58:49;;;;;;;4.53;3.90;;;11.40;99.90;;;;;;4977248;28;20520;-64
2024/02/26 12:01:38;;;;;;;5.07;4.53;;;11.40;99.90;;;;;;4987241;28;20538;-64
2024/02/26 12:04:08;;;;;;;5.57;5.07;;;11.50;99.90;;;;;;4996762;28;20454;-64
2024/02/26 12:06:47;;;;;;;3.50;3.30;;;11.50;99.90;;;;;;4988286;28;20451;-64
2024/02/26 12:09:31;;;;;;;4.70;4.30;;;11.80;99.90;;;;;;4988307;28;20459;-64
2024/02/26 12:11:58;;;;;;;4.37;3.43;;;12.00;99.90;;;;;;4988370;28;20474;-64
2024/02/26 12:14:26;;;;;;;5.87;3.60;;;12.20;99.90;;;;;;4984167;28;20931;-65
2024/02/26 12:16:55;;;;;;;7.90;4.20;;;12.20;99.90;;;;;;4974585;28;20543;-64
2024/02/26 12:19:24;;;;;;;4.00;3.70;;;12.30;99.90;;;;;;4987744;28;20542;-64
2024/02/26 12:21:54;;;;;;;4.53;4.10;;;12.40;99.90;;;;;;4987692;28;20463;-64
2024/02/26 12:24:22;;;;;;;5.07;3.77;;;12.40;99.90;;;;;;4990710;28;20517;-64
2024/02/26 12:26:48;;;;;;;5.30;4.90;;;12.40;99.90;;;;;;4999426;28;20447;-65
2024/02/26 12:29:16;;;;;;;6.60;4.53;;;12.40;99.90;;;;;;5082417;22;21359;-61
2024/02/26 12:31:44;;;;;;;4.63;4.30;;;12.30;99.90;;;;;;5086287;28;20447;-61
2024/02/26 12:34:11;;;;;;;5.63;4.57;;;12.20;99.90;;;;;;5086836;28;20478;-61
2024/02/26 12:36:40;;;;;;;3.57;3.27;;;12.10;99.90;;;;;;5087295;28;20487;-60
2024/02/26 12:39:09;;;;;;;4.60;3.77;;;11.90;99.90;;;;;;5083218;28;20937;-61
2024/02/26 12:41:36;;;;;;;5.40;4.10;;;11.90;99.90;;;;;;5087475;28;20454;-60
2024/02/26 12:44:03;;;;;;;6.30;4.90;;;11.90;99.90;;;;;;5086909;28;20915;-61
2024/02/26 12:46:30;;;;;;;5.97;4.40;;;11.80;99.90;;;;;;5087771;28;20977;-61
2024/02/26 12:48:58;;;;;;;6.60;4.37;;;11.80;99.90;;;;;;5087547;28;20994;-61
2024/02/26 12:51:26;;;;;;;4.70;4.30;;;11.80;99.90;;;;;;5087309;28;20454;-60
2024/02/26 12:53:56;;;;;;;5.97;5.47;;;11.80;99.90;;;;;;5087477;28;20483;-60
2024/02/26 12:56:23;;;;;;;4.60;4.20;;;11.90;99.90;;;;;;5087429;28;20486;-61